createdAt,value
2018-05-07T00:00:34.658Z,2.67
2018-05-07T00:03:02.028Z,2.60
2018-05-07T00:05:29.627Z,3.23
2018-05-07T00:07:57.009Z,2.47
2018-05-07T00:10:24.408Z,2.07
2018-05-07T00:12:51.789Z,2.00
2018-05-07T00:15:19.167Z,2.60
2018-05-07T00:17:46.572Z,2.23
2018-05-07T00:20:13.966Z,2.00
2018-05-07T00:22:41.356Z,2.47
2018-05-07T00:25:08.748Z,3.97
2018-05-07T00:27:36.150Z,2.90
2018-05-07T00:30:03.548Z,3.10
2018-05-07T00:32:30.940Z,2.70
2018-05-07T00:34:58.963Z,2.57
2018-05-07T00:37:27.181Z,2.50
2018-05-07T00:39:54.573Z,2.73
2018-05-07T00:42:21.948Z,2.27
2018-05-07T00:44:49.345Z,2.13
2018-05-07T00:47:16.741Z,2.20
2018-05-07T00:49:44.185Z,2.07
2018-05-07T00:52:12.387Z,2.30
2018-05-07T00:54:51.552Z,2.35
2018-05-07T00:57:18.960Z,2.45
2018-05-07T00:59:46.343Z,2.40
2018-05-07T01:02:13.745Z,2.93
2018-05-07T01:04:41.135Z,2.13
2018-05-07T01:07:08.529Z,2.92
2018-05-07T01:09:35.916Z,3.40
2018-05-07T01:12:03.301Z,3.10
2018-05-07T01:14:30.672Z,2.90
2018-05-07T01:16:58.078Z,2.43
2018-05-07T01:19:25.451Z,2.13
2018-05-07T01:21:52.836Z,2.10
2018-05-07T01:24:20.228Z,1.70
2018-05-07T01:26:47.633Z,2.43
2018-05-07T01:29:15.013Z,2.00
2018-05-07T01:31:42.412Z,1.80
2018-05-07T01:34:09.805Z,2.00
2018-05-07T01:36:37.189Z,2.37
2018-05-07T01:39:04.871Z,2.37
2018-05-07T01:41:32.918Z,1.67
2018-05-07T01:44:00.298Z,1.90
2018-05-07T01:46:27.685Z,1.60
2018-05-07T01:48:55.065Z,1.95
2018-05-07T01:51:23.224Z,2.20
2018-05-07T01:53:50.619Z,1.80
2018-05-07T01:56:18.021Z,1.80
2018-05-07T01:58:45.412Z,2.03
2018-05-07T02:01:12.792Z,1.93
2018-05-07T02:03:40.192Z,1.60
2018-05-07T02:06:07.576Z,1.87
2018-05-07T02:08:34.964Z,1.70
2018-05-07T02:11:02.352Z,1.83
2018-05-07T02:13:29.743Z,1.70
2018-05-07T02:15:57.120Z,1.90
2018-05-07T02:18:24.524Z,1.75
2018-05-07T02:20:51.916Z,1.70
2018-05-07T02:23:19.304Z,1.70
2018-05-07T02:25:46.691Z,1.70
2018-05-07T02:28:14.082Z,1.90
2018-05-07T02:30:41.465Z,2.23
2018-05-07T02:33:08.863Z,2.43
2018-05-07T02:35:36.267Z,2.23
2018-05-07T02:38:03.634Z,1.80
2018-05-07T02:40:31.020Z,1.90
2018-05-07T02:42:58.426Z,2.05
2018-05-07T02:45:25.799Z,1.70
2018-05-07T02:47:53.215Z,2.00
2018-05-07T02:50:20.590Z,2.17
2018-05-07T02:52:47.986Z,2.00
2018-05-07T02:55:15.381Z,1.97
2018-05-07T02:57:42.765Z,1.80
2018-05-07T03:00:10.160Z,1.80
2018-05-07T03:02:37.551Z,2.10
2018-05-07T03:05:04.930Z,1.97
2018-05-07T03:07:32.332Z,1.60
2018-05-07T03:09:59.722Z,2.10
2018-05-07T03:12:27.124Z,2.07
2018-05-07T03:14:54.525Z,3.70
2018-05-07T03:17:21.909Z,2.00
2018-05-07T03:19:49.311Z,2.80
2018-05-07T03:22:16.691Z,2.90
2018-05-07T03:24:44.111Z,2.30
2018-05-07T03:27:11.484Z,1.90
2018-05-07T03:29:38.869Z,2.30
2018-05-07T03:32:06.250Z,1.90
2018-05-07T03:34:33.634Z,2.17
2018-05-07T03:37:01.026Z,2.33
2018-05-07T03:39:28.418Z,1.97
2018-05-07T03:41:55.802Z,1.93
2018-05-07T03:44:23.195Z,2.30
2018-05-07T03:46:50.589Z,1.97
2018-05-07T03:49:17.976Z,1.90
2018-05-07T03:51:45.363Z,2.10
2018-05-07T03:54:12.754Z,2.33
2018-05-07T03:56:40.131Z,1.83
2018-05-07T03:59:07.548Z,2.87
2018-05-07T04:01:34.924Z,2.10
2018-05-07T04:04:02.330Z,1.93
2018-05-07T04:06:29.724Z,2.00
2018-05-07T04:08:57.162Z,2.00
2018-05-07T04:11:24.555Z,1.80
2018-05-07T04:13:51.956Z,2.03
2018-05-07T04:16:31.158Z,2.27
2018-05-07T04:19:10.356Z,2.40
2018-05-07T04:21:37.744Z,2.70
2018-05-07T04:24:05.673Z,2.47
2018-05-07T04:26:33.056Z,2.50
2018-05-07T04:29:00.454Z,3.23
2018-05-07T04:31:27.835Z,2.93
2018-05-07T04:33:55.229Z,3.00
2018-05-07T04:36:22.633Z,2.70
2018-05-07T04:38:50.024Z,2.20
2018-05-07T04:41:17.416Z,3.07
2018-05-07T04:43:44.806Z,2.65
2018-05-07T04:46:12.192Z,2.60
2018-05-07T04:48:39.583Z,2.77
2018-05-07T04:51:06.976Z,2.80
2018-05-07T04:53:34.360Z,2.65
2018-05-07T04:56:01.765Z,3.20
2018-05-07T04:58:29.158Z,2.50
2018-05-07T05:00:56.551Z,1.97
2018-05-07T05:03:23.938Z,2.00
2018-05-07T05:05:51.327Z,2.13
2018-05-07T05:08:18.712Z,2.20
2018-05-07T05:10:46.106Z,2.28
2018-05-07T05:13:13.815Z,2.90
2018-05-07T05:15:41.212Z,2.20
2018-05-07T05:18:08.600Z,2.50
2018-05-07T05:20:36.006Z,2.70
2018-05-07T05:23:03.385Z,2.57
2018-05-07T05:25:30.780Z,2.63
2018-05-07T05:27:58.165Z,2.80
2018-05-07T05:30:25.554Z,2.60
2018-05-07T05:32:52.943Z,2.50
2018-05-07T05:35:20.345Z,2.47
2018-05-07T05:37:47.726Z,2.50
2018-05-07T05:40:15.127Z,2.13
2018-05-07T05:42:42.511Z,2.57
2018-05-07T05:45:09.902Z,2.05
2018-05-07T05:47:37.289Z,2.03
2018-05-07T05:50:04.818Z,2.83
2018-05-07T05:52:32.086Z,2.30
2018-05-07T05:54:59.477Z,2.20
2018-05-07T05:57:26.848Z,2.00
2018-05-07T05:59:54.248Z,2.23
2018-05-07T06:02:21.649Z,2.03
2018-05-07T06:04:49.021Z,2.73
2018-05-07T06:07:16.430Z,2.30
2018-05-07T06:09:43.795Z,2.63
2018-05-07T06:12:11.193Z,2.10
2018-05-07T06:14:38.644Z,2.60
2018-05-07T06:17:05.956Z,2.67
2018-05-07T06:19:33.350Z,2.53
2018-05-07T06:22:00.737Z,2.50
2018-05-07T06:24:28.126Z,2.30
2018-05-07T06:26:55.526Z,2.20
2018-05-07T06:29:22.901Z,2.60
2018-05-07T06:31:50.304Z,2.17
2018-05-07T06:34:17.707Z,2.33
2018-05-07T06:36:45.096Z,2.90
2018-05-07T06:39:12.481Z,2.70
2018-05-07T06:41:39.868Z,2.80
2018-05-07T06:44:07.248Z,2.90
2018-05-07T06:46:34.651Z,2.77
2018-05-07T06:49:02.041Z,2.97
2018-05-07T06:51:29.426Z,2.17
2018-05-07T06:53:56.813Z,2.58
2018-05-07T06:56:24.201Z,2.27
2018-05-07T06:58:51.583Z,2.63
2018-05-07T07:01:18.987Z,2.60
2018-05-07T07:03:46.376Z,2.13
2018-05-07T07:06:13.775Z,2.70
2018-05-07T07:08:42.361Z,2.50
2018-05-07T07:11:09.691Z,2.60
2018-05-07T07:13:37.080Z,2.93
2018-05-07T07:16:04.481Z,2.53
2018-05-07T07:18:31.852Z,2.47
2018-05-07T07:20:59.252Z,2.80
2018-05-07T07:23:26.635Z,3.58
2018-05-07T07:25:54.029Z,2.73
2018-05-07T07:28:21.417Z,2.57
2018-05-07T07:30:48.826Z,2.95
2018-05-07T07:33:16.208Z,3.20
2018-05-07T07:35:43.601Z,2.40
2018-05-07T07:38:10.995Z,2.33
2018-05-07T07:40:38.377Z,2.65
2018-05-07T07:43:05.769Z,2.67
2018-05-07T07:45:33.158Z,3.03
2018-05-07T07:48:00.561Z,2.47
2018-05-07T07:50:27.938Z,3.10
2018-05-07T07:52:55.903Z,2.43
2018-05-07T07:55:23.292Z,2.80
2018-05-07T07:57:50.680Z,3.10
2018-05-07T08:00:18.948Z,2.60
2018-05-07T08:02:46.336Z,2.60
2018-05-07T08:05:13.727Z,2.97
2018-05-07T08:07:41.133Z,2.70
2018-05-07T08:10:08.524Z,3.30
2018-05-07T08:12:35.917Z,3.17
2018-05-07T08:15:04.077Z,2.25
2018-05-07T08:17:31.482Z,2.90
2018-05-07T08:19:58.864Z,2.73
2018-05-07T08:22:26.263Z,2.63
2018-05-07T08:24:53.648Z,2.60
2018-05-07T08:27:21.032Z,2.27
2018-05-07T08:29:48.422Z,3.13
2018-05-07T08:32:15.828Z,3.10
2018-05-07T08:34:43.218Z,4.03
2018-05-07T08:37:10.599Z,3.70
2018-05-07T08:39:37.979Z,2.30
2018-05-07T08:42:05.372Z,2.23
2018-05-07T08:44:32.760Z,2.42
2018-05-07T08:47:01.789Z,3.03
2018-05-07T08:49:29.190Z,2.77
2018-05-07T08:51:56.584Z,2.53
2018-05-07T08:54:23.971Z,2.03
2018-05-07T08:56:51.365Z,2.10
2018-05-07T08:59:18.741Z,2.20
2018-05-07T09:01:47.141Z,2.23
2018-05-07T09:04:14.406Z,2.87
2018-05-07T09:06:41.780Z,2.87
2018-05-07T09:09:09.255Z,2.37
2018-05-07T09:11:36.573Z,2.10
2018-05-07T09:14:03.968Z,2.47
2018-05-07T09:16:31.348Z,1.80
2018-05-07T09:18:58.740Z,2.50
2018-05-07T09:21:26.122Z,2.40
2018-05-07T09:23:53.529Z,2.10
2018-05-07T09:26:21.364Z,2.05
2018-05-07T09:28:49.180Z,1.97
2018-05-07T09:31:16.559Z,2.03
2018-05-07T09:33:43.955Z,2.33
2018-05-07T09:36:11.595Z,2.07
2018-05-07T09:38:39.000Z,2.00
2018-05-07T09:41:06.392Z,2.08
2018-05-07T09:43:33.784Z,2.73
2018-05-07T09:46:01.424Z,2.50
2018-05-07T09:48:28.818Z,2.37
2018-05-07T09:50:56.199Z,1.90
2018-05-07T09:53:23.600Z,1.70
2018-05-07T09:55:50.988Z,2.10
2018-05-07T09:58:18.376Z,2.07
2018-05-07T10:00:45.772Z,2.17
2018-05-07T10:03:13.169Z,1.55
2018-05-07T10:05:40.555Z,2.20
2018-05-07T10:08:07.943Z,2.28
2018-05-07T10:10:35.328Z,1.80
2018-05-07T10:13:02.737Z,1.83
2018-05-07T10:15:30.115Z,2.37
2018-05-07T10:17:57.507Z,2.00
2018-05-07T10:20:24.896Z,1.90
2018-05-07T10:22:53.259Z,1.65
2018-05-07T10:25:20.654Z,2.20
2018-05-07T10:27:48.063Z,1.60
2018-05-07T10:30:15.449Z,2.20
2018-05-07T10:32:42.838Z,1.77
2018-05-07T10:35:10.233Z,1.55
2018-05-07T10:37:37.619Z,1.97
2018-05-07T10:40:05.007Z,1.80
2018-05-07T10:42:32.400Z,2.05
2018-05-07T10:44:59.788Z,1.40
2018-05-07T10:47:27.184Z,2.30
2018-05-07T10:49:54.587Z,1.60
2018-05-07T10:52:22.788Z,1.60
2018-05-07T10:54:51.104Z,1.60
2018-05-07T10:57:18.494Z,1.80
2018-05-07T10:59:46.682Z,1.48
2018-05-07T11:02:14.063Z,1.45
2018-05-07T11:04:41.452Z,1.67
2018-05-07T11:07:08.871Z,1.90
2018-05-07T11:09:36.240Z,1.42
2018-05-07T11:12:03.623Z,1.90
2018-05-07T11:14:31.005Z,1.50
2018-05-07T11:16:58.393Z,2.17
2018-05-07T11:19:25.799Z,1.90
2018-05-07T11:21:53.172Z,1.50
2018-05-07T11:24:20.578Z,1.40
2018-05-07T11:26:47.963Z,1.80
2018-05-07T11:29:15.357Z,2.03
2018-05-07T11:31:42.742Z,1.40
2018-05-07T11:34:10.136Z,1.80
2018-05-07T11:36:37.524Z,1.93
2018-05-07T11:39:05.485Z,1.83
2018-05-07T11:41:32.851Z,1.70
2018-05-07T11:44:00.266Z,1.53
2018-05-07T11:46:27.643Z,1.77
2018-05-07T11:48:55.706Z,1.52
2018-05-07T11:51:23.097Z,1.57
2018-05-07T11:53:50.487Z,1.90
2018-05-07T11:56:17.875Z,1.98
2018-05-07T11:58:45.268Z,1.60
2018-05-07T12:01:12.649Z,1.80
2018-05-07T12:03:40.028Z,1.67
2018-05-07T12:06:07.420Z,1.70
2018-05-07T12:08:35.615Z,1.60
2018-05-07T12:11:03.008Z,1.40
2018-05-07T12:13:30.404Z,1.62
2018-05-07T12:15:57.818Z,1.80
2018-05-07T12:18:25.186Z,1.70
2018-05-07T12:20:52.580Z,1.70
2018-05-07T12:23:20.047Z,1.70
2018-05-07T12:25:47.354Z,1.80
2018-05-07T12:28:14.732Z,1.60
2018-05-07T12:30:42.145Z,1.40
2018-05-07T12:33:09.526Z,1.77
2018-05-07T12:35:36.920Z,2.17
2018-05-07T12:38:04.312Z,1.58
2018-05-07T12:40:31.696Z,1.40
2018-05-07T12:42:59.076Z,1.70
2018-05-07T12:45:26.476Z,1.50
2018-05-07T12:47:53.863Z,1.50
2018-05-07T12:50:21.481Z,1.50
2018-05-07T12:52:48.880Z,1.60
2018-05-07T12:55:16.272Z,1.50
2018-05-07T12:57:43.660Z,1.50
2018-05-07T13:00:11.053Z,1.50
2018-05-07T13:02:38.439Z,1.53
2018-05-07T13:05:05.831Z,1.70
2018-05-07T13:07:33.218Z,1.60
2018-05-07T13:10:00.645Z,2.07
2018-05-07T13:12:28.568Z,1.60
2018-05-07T13:14:55.926Z,2.53
2018-05-07T13:17:23.311Z,1.50
2018-05-07T13:19:50.714Z,1.67
2018-05-07T13:22:18.105Z,1.70
2018-05-07T13:24:45.538Z,1.77
2018-05-07T13:27:12.896Z,1.67
2018-05-07T13:29:40.303Z,1.60
2018-05-07T13:32:07.683Z,1.30
2018-05-07T13:34:35.072Z,1.37
2018-05-07T13:37:02.477Z,1.67
2018-05-07T13:39:29.868Z,1.40
2018-05-07T13:41:57.256Z,1.70
2018-05-07T13:44:24.660Z,1.53
2018-05-07T13:46:52.040Z,1.73
2018-05-07T13:49:19.436Z,1.30
2018-05-07T13:51:46.824Z,1.30
2018-05-07T13:54:14.205Z,1.17
2018-05-07T13:56:41.596Z,1.50
2018-05-07T13:59:08.986Z,1.70
2018-05-07T14:01:36.376Z,1.40
2018-05-07T14:04:03.777Z,1.63
2018-05-07T14:06:31.221Z,1.43
2018-05-07T14:08:58.596Z,1.85
2018-05-07T14:11:25.980Z,1.20
2018-05-07T14:13:53.369Z,1.80
2018-05-07T14:16:20.769Z,1.40
2018-05-07T14:18:48.153Z,1.50
2018-05-07T14:21:15.775Z,1.57
2018-05-07T14:23:43.170Z,1.60
2018-05-07T14:26:11.336Z,1.37
2018-05-07T14:28:38.635Z,1.50
2018-05-07T14:31:06.049Z,1.50
2018-05-07T14:33:33.450Z,1.40
2018-05-07T14:36:01.734Z,1.70
2018-05-07T14:38:29.113Z,1.40
2018-05-07T14:40:56.521Z,1.20
2018-05-07T14:43:23.908Z,1.52
2018-05-07T14:45:51.310Z,1.40
2018-05-07T14:48:18.692Z,1.30
2018-05-07T14:50:46.089Z,1.30
2018-05-07T14:53:13.488Z,1.50
2018-05-07T14:55:40.877Z,1.40
2018-05-07T14:58:08.870Z,1.30
2018-05-07T15:00:36.294Z,1.30
2018-05-07T15:03:03.652Z,1.25
2018-05-07T15:05:31.108Z,1.30
2018-05-07T15:07:58.434Z,1.20
2018-05-07T15:10:26.272Z,1.33
2018-05-07T15:12:53.674Z,1.43
2018-05-07T15:15:21.056Z,1.10
2018-05-07T15:17:48.473Z,1.40
2018-05-07T15:20:15.860Z,1.42
2018-05-07T15:22:44.140Z,1.50
2018-05-07T15:25:11.532Z,1.50
2018-05-07T15:27:38.919Z,1.40
2018-05-07T15:30:06.299Z,1.40
2018-05-07T15:32:34.077Z,1.83
2018-05-07T15:35:01.467Z,1.90
2018-05-07T15:37:28.856Z,1.60
2018-05-07T15:39:56.239Z,1.40
2018-05-07T15:42:23.636Z,1.43
2018-05-07T15:44:51.024Z,1.40
2018-05-07T15:47:18.416Z,1.20
2018-05-07T15:49:45.805Z,1.37
2018-05-07T15:52:13.215Z,1.50
2018-05-07T15:54:40.597Z,1.40
2018-05-07T15:57:07.996Z,1.50
2018-05-07T15:59:35.380Z,1.40
2018-05-07T16:02:02.779Z,1.10
2018-05-07T16:04:30.172Z,1.07
2018-05-07T16:06:57.561Z,1.37
2018-05-07T16:09:24.948Z,1.50
2018-05-07T16:11:52.344Z,1.37
2018-05-07T16:14:19.734Z,1.42
2018-05-07T16:16:47.126Z,1.50
2018-05-07T16:19:14.530Z,1.33
2018-05-07T16:21:41.931Z,1.50
2018-05-07T16:24:09.291Z,1.37
2018-05-07T16:26:37.626Z,1.40
2018-05-07T16:29:04.930Z,1.60
2018-05-07T16:31:32.333Z,1.40
2018-05-07T16:33:59.704Z,1.90
2018-05-07T16:36:27.094Z,1.97
2018-05-07T16:38:54.500Z,1.20
2018-05-07T16:41:21.908Z,1.23
2018-05-07T16:43:49.301Z,1.90
2018-05-07T16:46:16.677Z,2.07
2018-05-07T16:48:44.335Z,1.70
2018-05-07T16:51:13.252Z,1.47
2018-05-07T16:53:41.103Z,1.43
2018-05-07T16:56:08.484Z,1.50
2018-05-07T16:58:35.878Z,1.47
2018-05-07T17:01:03.258Z,2.00
2018-05-07T17:03:30.651Z,1.60
2018-05-07T17:05:58.042Z,1.60
2018-05-07T17:08:25.480Z,1.67
2018-05-07T17:10:52.810Z,1.80
2018-05-07T17:13:20.217Z,1.40
2018-05-07T17:15:47.993Z,1.70
2018-05-07T17:18:15.385Z,1.63
2018-05-07T17:20:42.773Z,2.43
2018-05-07T17:23:10.166Z,1.50
2018-05-07T17:25:37.554Z,1.77
2018-05-07T17:28:04.940Z,1.83
2018-05-07T17:30:32.331Z,1.77
2018-05-07T17:32:59.733Z,2.23
2018-05-07T17:35:27.131Z,1.60
2018-05-07T17:37:54.516Z,2.05
2018-05-07T17:40:22.079Z,1.77
2018-05-07T17:42:49.610Z,2.70
2018-05-07T17:45:28.532Z,1.70
2018-05-07T17:48:07.820Z,2.33
2018-05-07T17:50:35.178Z,2.03
2018-05-07T17:53:03.429Z,2.07
2018-05-07T17:55:30.804Z,1.50
2018-05-07T17:57:58.209Z,1.77
2018-05-07T18:00:25.643Z,1.95
2018-05-07T18:02:53.050Z,2.23
2018-05-07T18:05:20.426Z,2.10
2018-05-07T18:07:48.048Z,2.50
2018-05-07T18:10:16.534Z,1.73
2018-05-07T18:12:44.435Z,1.70
2018-05-07T18:15:11.848Z,1.70
2018-05-07T18:17:39.241Z,1.60
2018-05-07T18:20:06.628Z,1.73
2018-05-07T18:22:34.926Z,2.87
2018-05-07T18:25:02.328Z,1.70
2018-05-07T18:27:29.700Z,2.00
2018-05-07T18:29:57.095Z,1.57
2018-05-07T18:32:24.527Z,2.80
2018-05-07T18:34:51.884Z,1.90
2018-05-07T18:37:19.265Z,2.00
2018-05-07T18:39:46.665Z,2.07
2018-05-07T18:42:14.052Z,1.50
2018-05-07T18:44:41.455Z,1.93
2018-05-07T18:47:08.836Z,1.97
2018-05-07T18:49:36.230Z,1.63
2018-05-07T18:52:03.625Z,1.80
2018-05-07T18:54:31.007Z,1.60
2018-05-07T18:56:58.393Z,1.50
2018-05-07T18:59:25.792Z,2.70
2018-05-07T19:01:53.174Z,2.30
2018-05-07T19:04:20.572Z,1.70
2018-05-07T19:06:47.954Z,1.60
2018-05-07T19:09:15.917Z,1.80
2018-05-07T19:11:44.139Z,1.80
2018-05-07T19:14:11.605Z,1.93
2018-05-07T19:16:38.937Z,1.70
2018-05-07T19:19:06.327Z,1.85
2018-05-07T19:21:33.721Z,2.00
2018-05-07T19:24:01.110Z,1.93
2018-05-07T19:26:28.491Z,1.70
2018-05-07T19:28:55.880Z,1.80
2018-05-07T19:31:23.268Z,2.00
2018-05-07T19:33:50.657Z,2.30
2018-05-07T19:36:18.620Z,2.40
2018-05-07T19:38:46.014Z,1.87
2018-05-07T19:41:13.497Z,2.30
2018-05-07T19:43:40.792Z,2.30
2018-05-07T19:46:08.724Z,1.73
2018-05-07T19:48:36.227Z,2.23
2018-05-07T19:51:03.506Z,1.80
2018-05-07T19:53:30.896Z,2.00
2018-05-07T19:55:58.279Z,2.03
2018-05-07T19:58:25.684Z,2.10
2018-05-07T20:00:53.067Z,2.67
2018-05-07T20:03:20.448Z,2.10
2018-05-07T20:05:47.902Z,2.10
2018-05-07T20:08:15.231Z,2.20
2018-05-07T20:10:42.629Z,1.92
2018-05-07T20:13:10.068Z,2.07
2018-05-07T20:15:37.443Z,3.27
2018-05-07T20:18:05.137Z,2.30
2018-05-07T20:20:32.563Z,2.00
2018-05-07T20:22:59.954Z,2.25
2018-05-07T20:25:27.343Z,2.10
2018-05-07T20:27:54.992Z,2.33
2018-05-07T20:30:24.838Z,2.17
2018-05-07T20:32:52.221Z,2.42
2018-05-07T20:35:19.628Z,2.03
2018-05-07T20:37:47.434Z,2.20
2018-05-07T20:40:14.858Z,2.47
2018-05-07T20:42:42.226Z,2.83
2018-05-07T20:45:09.677Z,3.43
2018-05-07T20:47:37.066Z,2.47
2018-05-07T20:50:04.472Z,2.30
2018-05-07T20:52:31.889Z,2.10
2018-05-07T20:54:59.297Z,2.30
2018-05-07T20:57:27.573Z,2.20
2018-05-07T20:59:55.772Z,2.10
2018-05-07T21:02:23.205Z,2.80
2018-05-07T21:04:50.594Z,2.73
2018-05-07T21:07:18.265Z,2.58
2018-05-07T21:09:46.887Z,2.60
2018-05-07T21:12:14.300Z,2.83
2018-05-07T21:14:41.687Z,2.93
2018-05-07T21:17:09.077Z,2.33
2018-05-07T21:19:36.456Z,2.70
2018-05-07T21:22:03.852Z,2.30
2018-05-07T21:24:31.531Z,2.78
2018-05-07T21:26:58.935Z,2.43
2018-05-07T21:29:26.311Z,2.43
2018-05-07T21:31:53.708Z,2.83
2018-05-07T21:34:21.407Z,2.57
2018-05-07T21:36:49.084Z,3.10
2018-05-07T21:39:16.522Z,2.70
2018-05-07T21:41:43.895Z,3.20
2018-05-07T21:44:11.285Z,2.50
2018-05-07T21:46:38.687Z,2.63
2018-05-07T21:49:06.077Z,2.90
2018-05-07T21:51:33.479Z,2.93
2018-05-07T21:54:00.863Z,2.37
2018-05-07T21:56:28.263Z,2.97
2018-05-07T21:58:55.656Z,2.50
2018-05-07T22:02:39.949Z,2.27
2018-05-07T22:05:07.360Z,2.53
2018-05-07T22:07:34.752Z,2.75
2018-05-07T22:10:02.167Z,2.87
2018-05-07T22:12:29.560Z,2.70
2018-05-07T22:14:56.960Z,3.15
2018-05-07T22:17:25.115Z,2.47
2018-05-07T22:19:52.496Z,2.80
2018-05-07T22:22:20.484Z,2.45
2018-05-07T22:24:47.877Z,2.20
2018-05-07T22:27:15.520Z,2.70
2018-05-07T22:29:42.912Z,3.03
2018-05-07T22:32:10.358Z,2.30
2018-05-07T22:34:37.707Z,2.73
2018-05-07T22:37:05.911Z,2.50
2018-05-07T22:39:33.298Z,2.50
2018-05-07T22:42:00.688Z,2.67
2018-05-07T22:44:28.064Z,2.67
2018-05-07T22:46:55.455Z,2.53
2018-05-07T22:49:22.841Z,2.43
2018-05-07T22:51:51.155Z,2.08
2018-05-07T22:54:18.544Z,2.67
2018-05-07T22:56:45.935Z,2.30
2018-05-07T22:59:13.317Z,1.90
2018-05-07T23:01:40.718Z,2.10
2018-05-07T23:04:08.098Z,2.33
2018-05-07T23:06:35.490Z,2.00
2018-05-07T23:09:02.873Z,2.73
2018-05-07T23:11:30.261Z,2.90
2018-05-07T23:13:57.656Z,2.37
2018-05-07T23:16:25.064Z,2.33
2018-05-07T23:18:52.462Z,2.73
2018-05-07T23:21:19.845Z,2.93
2018-05-07T23:23:47.236Z,2.60
2018-05-07T23:26:14.640Z,2.80
2018-05-07T23:28:42.023Z,2.80
2018-05-07T23:31:09.409Z,2.73
2018-05-07T23:33:36.805Z,2.30
2018-05-07T23:36:04.241Z,2.63
2018-05-07T23:38:31.637Z,3.00
2018-05-07T23:40:59.021Z,2.90
2018-05-07T23:43:26.422Z,2.50
2018-05-07T23:45:53.791Z,3.03
2018-05-07T23:48:21.188Z,4.07
2018-05-07T23:50:48.581Z,2.60
2018-05-07T23:53:15.968Z,2.80
2018-05-07T23:55:43.932Z,2.70
2018-05-07T23:58:11.325Z,3.27
